Flight Track Log - Related Links

Times and Time Zones

All times are in EST time to prevent confusion due to time zone crossing. See the N468QS flight status page for this flight to view local times or setup timezone preferences in your user account.

Time Position Orientation Groundspeed Altitude Reporting Facility
EST Latitude Longitude Course Direction KTS MPH feet Rate Location/Type
Mon 05:27:06 PM 40.0667 -75.0667 237° Southwest 175 201 2,000  Level Philadelphia TRACON
Mon 05:28:12 PM 40.0333 -75.1000 217° Southwest 218 251 6,200 3,762 Climbing Philadelphia TRACON
Mon 05:29:12 PM 39.9667 -75.0833 169° South 240 276 9,900 1,723 Climbing Philadelphia TRACON
Mon 05:31:27 PM 39.8386 -74.9722 146° Southeast 305 351 11,800 646 Climbing New York Center
Mon 05:32:27 PM 39.8161 -74.8411 103° East 361 415 12,000 500 Climbing New York Center
Mon 05:33:27 PM 39.7986 -74.6806 98° East 392 451 12,800 450 Climbing New York Center
Mon 05:34:27 PM 39.8078 -74.5244 86° East 414 476 12,900 100 Climbing New York Center
Mon 05:35:27 PM 39.8397 -74.3772 74° East 421 484 13,000 50 Climbing New York Center
Mon 05:36:27 PM 39.8881 -74.2203 68° East 428 493 13,000  Level New York Center
Mon 05:37:27 PM 39.9744 -74.1161 43° Northeast 420 483 13,000  Level New York Center
Mon 05:38:27 PM 40.0344 -73.9861 59° Northeast 413 475 13,000  Level New York Center
Mon 05:39:27 PM 40.0692 -73.8550 71° East 420 483 13,000  Level New York Center
Mon 05:41:06 PM 40.0894 -73.5942 84° East 433 498 13,000  Level Boston Center
Mon 05:42:06 PM 40.1019 -73.4403 84° East 431 496 13,000  Level Boston Center
Mon 05:43:10 PM 40.1269 -73.2892 78° East 427 491 13,000  Level Boston Center
Mon 05:44:10 PM 40.2069 -73.1744 48° Northeast 429 494 13,000  Level Boston Center
Mon 05:45:11 PM 40.2947 -73.0711 42° Northeast 427 491 13,000 -148 Level Boston Center
Mon 05:46:12 PM 40.4000 -72.9444 42° Northeast 429 494 12,700 -639 Descending Boston Center
Mon 05:47:13 PM 40.4856 -72.8425 42° Northeast 421 484 11,700 -968 Descending Boston Center
Mon 05:48:16 PM 40.5647 -72.7464 43° Northeast 399 459 10,700 -823 Descending Boston Center
Mon 05:49:17 PM 40.6558 -72.6925 24° Northeast 375 432 10,000 -347 Descending Boston Center
Mon 05:50:17 PM 40.7553 -72.6919 360° North 359 413 10,000  Level Boston Center
Mon 05:51:11 PM 40.8667 -72.7000 357° North 356 410 10,000 -368 Level New York TRACON
Mon 05:52:11 PM 40.9333 -72.7333 339° North 308 354 9,300 -810 Descending New York TRACON
Mon 05:53:17 PM 40.9833 -72.8167 308° West 262 302 8,300 -952 Descending New York TRACON
Mon 05:54:17 PM 41.0333 -72.9000 309° West 250 288 7,300 -850 Descending New York TRACON
Mon 05:55:17 PM 41.0667 -72.9667 304° West 250 288 6,600 -850 Descending New York TRACON
Mon 05:56:17 PM 41.1167 -73.0333 315° West 246 283 5,600 -1,000 Descending New York TRACON
Mon 05:57:17 PM 41.1500 -73.1167 298° West 243 280 4,600 -750 Descending New York TRACON
Mon 05:58:17 PM 41.1667 -73.2000 285° West 234 269 4,100 -250 Descending New York TRACON
Mon 05:59:17 PM 41.1667 -73.2833 270° West 233 268 4,100 -500 Level New York TRACON
Mon 06:00:17 PM 41.1500 -73.3667 255° West 234 269 3,100 -500 Descending New York TRACON
Mon 06:01:17 PM 41.1333 -73.4333 252° West 239 275 3,100 -450 Level New York TRACON
Mon 06:02:17 PM 41.0833 -73.4833 217° Southwest 218 251 2,200 -500 Descending New York TRACON
Mon 06:03:17 PM 41.0333 -73.5333 217° Southwest 187 215 2,100 -50 Descending New York TRACON
Mon 06:04:17 PM 41.0000 -73.5833 229° Southwest 187 215 2,100  Level New York TRACON
Mon 06:05:17 PM 40.9833 -73.6333 246° West 166 191 2,100 -263 Level New York TRACON
Mon 06:06:11 PM 41.0167 -73.6667 323° Northwest 150 173 1,600 -684 Descending New York TRACON
Mon 06:07:11 PM 41.0500 -73.6833 339° North 139 160 800 -800 Descending New York TRACON

Login

Don't have an account? Register now (free) for customized features, flight alerts, and more!